Time;durP1;ratioP1;P1;durP2;ratioP2;P2;SDS_P1;SDS_P2;PMS_P1;PMS_P2;Temp;Humidity;BMP_temperature;BMP_pressure;BME280_temperature;BME280_humidity;BME280_pressure;Samples;Min_cycle;Max_cycle;Signal;HPM_P1;HPM_P2
2021/03/08 00:00:24;;;;;;;46.92;25.17;;;;;;;-0.05;57.39;100333.91;5075369;27;674250;-76
2021/03/08 00:02:51;;;;;;;46.03;24.30;;;;;;;-0.11;58.35;100347.97;5117643;27;20401;-78
2021/03/08 00:05:16;;;;;;;43.47;24.17;;;;;;;0.07;57.54;100338.09;5135491;27;20056;-76
2021/03/08 00:07:45;;;;;;;45.85;24.67;;;;;;;-0.07;58.16;100341.78;5135729;27;20098;-77
2021/03/08 00:10:11;;;;;;;51.00;24.40;;;;;;;-0.16;58.03;100334.06;5135161;27;20481;-76
2021/03/08 00:12:36;;;;;;;45.42;24.27;;;;;;;-0.28;58.07;100339.50;5116919;27;20039;-73
2021/03/08 00:15:03;;;;;;;48.25;24.73;;;;;;;-0.34;58.52;100331.72;5115956;27;20043;-74
2021/03/08 00:17:29;;;;;;;47.97;24.52;;;;;;;-0.37;58.81;100334.41;5134743;27;20027;-74
2021/03/08 00:19:54;;;;;;;44.33;22.23;;;;;;;-0.36;58.77;100330.88;5135044;27;20023;-79
2021/03/08 00:22:20;;;;;;;46.83;24.35;;;;;;;-0.54;59.17;100318.03;5135017;27;20023;-78
2021/03/08 00:24:45;;;;;;;45.92;24.58;;;;;;;-0.56;59.41;100336.41;5135253;27;20030;-78
2021/03/08 00:27:11;;;;;;;47.53;24.40;;;;;;;-0.60;60.00;100334.69;5134942;27;20031;-78
2021/03/08 00:29:36;;;;;;;48.72;25.15;;;;;;;-0.65;60.41;100331.28;5116742;27;20047;-76
2021/03/08 00:32:02;;;;;;;46.80;25.00;;;;;;;-0.80;60.92;100327.09;5117273;27;20477;-77
2021/03/08 00:34:27;;;;;;;46.13;24.08;;;;;;;-0.81;60.72;100333.22;5134823;27;20474;-78
2021/03/08 00:36:53;;;;;;;50.65;25.13;;;;;;;-0.85;61.33;100328.94;5135166;27;20488;-77
2021/03/08 00:39:19;;;;;;;48.53;23.70;;;;;;;-0.93;61.51;100321.16;5134458;27;20385;-76
2021/03/08 00:41:44;;;;;;;51.40;23.88;;;;;;;-0.91;61.91;100324.63;5134900;27;20027;-75
2021/03/08 00:44:09;;;;;;;47.55;24.88;;;;;;;-0.88;61.69;100319.34;5116643;27;20085;-76
2021/03/08 00:46:36;;;;;;;47.30;24.33;;;;;;;-0.81;61.05;100309.66;5116342;27;20027;-76
2021/03/08 00:49:01;;;;;;;51.65;25.50;;;;;;;-0.53;60.20;100314.53;5134594;27;20501;-77
2021/03/08 00:51:27;;;;;;;45.60;23.85;;;;;;;-0.59;60.23;100321.56;5134833;27;20027;-77
2021/03/08 00:53:52;;;;;;;48.90;24.70;;;;;;;-0.84;60.87;100309.69;5118754;27;20103;-82
2021/03/08 00:56:18;;;;;;;51.35;25.92;;;;;;;-0.89;61.28;100306.25;5117065;27;20031;-81
2021/03/08 00:58:43;;;;;;;49.80;24.50;;;;;;;-0.86;61.11;100306.25;5116441;27;20031;-82
2021/03/08 01:01:09;;;;;;;51.25;25.90;;;;;;;-0.90;61.61;100312.38;5115968;27;20074;-84
2021/03/08 01:03:34;;;;;;;50.85;25.25;;;;;;;-0.94;61.35;100308.09;5116470;27;20385;-84
2021/03/08 01:06:00;;;;;;;44.15;24.65;;;;;;;-0.95;61.58;100308.97;5134743;27;20038;-83
2021/03/08 01:08:25;;;;;;;46.83;24.02;;;;;;;-0.85;61.10;100302.75;5115998;27;20023;-81
2021/03/08 01:10:51;;;;;;;49.45;24.10;;;;;;;-0.73;60.85;100306.94;5116424;27;20062;-85
2021/03/08 01:13:17;;;;;;;48.70;24.27;;;;;;;-0.71;60.46;100300.78;5115949;27;20120;-84
2021/03/08 01:15:42;;;;;;;46.60;24.45;;;;;;;-0.54;59.82;100297.06;5115962;27;20369;-83
2021/03/08 01:18:08;;;;;;;52.28;25.70;;;;;;;-0.81;60.68;100293.94;5116193;27;20388;-83
2021/03/08 01:20:33;;;;;;;54.35;26.40;;;;;;;-0.95;60.88;100288.03;5116065;27;20031;-82
2021/03/08 01:22:59;;;;;;;52.55;25.52;;;;;;;-0.95;61.71;100291.50;5098887;27;20035;-75
2021/03/08 01:25:30;;;;;;;50.22;24.98;;;;;;;-0.80;61.20;100295.66;5133942;27;20034;-76
2021/03/08 01:27:59;;;;;;;47.25;24.48;;;;;;;-0.73;60.63;100292.09;5115690;27;20023;-77
2021/03/08 01:30:27;;;;;;;50.80;25.02;;;;;;;-0.78;61.24;100293.88;5098899;27;20393;-77
2021/03/08 01:32:53;;;;;;;48.65;24.50;;;;;;;-0.82;60.78;100280.88;5115573;27;20109;-76
2021/03/08 01:35:21;;;;;;;48.15;25.05;;;;;;;-0.89;61.33;100274.84;5133806;27;20110;-76
2021/03/08 01:37:46;;;;;;;52.85;23.95;;;;;;;-0.69;60.24;100266.69;5115892;28;20035;-77
2021/03/08 01:40:14;;;;;;;45.47;23.77;;;;;;;-0.76;60.38;100281.66;5133691;28;20019;-79
2021/03/08 01:42:41;;;;;;;48.95;23.92;;;;;;;-0.97;61.42;100276.69;5115998;28;20038;-78
2021/03/08 01:45:09;;;;;;;44.35;23.38;;;;;;;-1.02;61.70;100279.38;5133972;27;20026;-77
2021/03/08 01:47:36;;;;;;;45.13;23.58;;;;;;;-1.03;62.06;100282.03;5133739;28;20027;-77
2021/03/08 01:50:04;;;;;;;52.97;24.90;;;;;;;-1.22;62.82;100268.28;5134184;28;20432;-78
2021/03/08 01:52:30;;;;;;;44.38;23.63;;;;;;;-1.24;62.68;100273.53;5133588;27;20055;-78
2021/03/08 01:54:55;;;;;;;49.58;24.70;;;;;;;-1.33;62.94;100276.28;5115530;28;20527;-81
2021/03/08 01:57:21;;;;;;;48.13;24.77;;;;;;;-1.34;63.44;100281.53;5115539;28;20027;-80
2021/03/08 01:59:46;;;;;;;47.22;24.35;;;;;;;-1.52;63.56;100251.19;5134008;28;20046;-77
2021/03/08 02:02:12;;;;;;;53.03;25.52;;;;;;;-1.47;63.66;100278.16;5133693;27;20213;-80
2021/03/08 02:04:37;;;;;;;53.20;24.98;;;;;;;-1.54;64.08;100271.28;5134141;27;20453;-77
2021/03/08 02:07:03;;;;;;;54.00;24.92;;;;;;;-1.53;64.25;100283.47;5115468;28;20015;-78
2021/03/08 02:09:29;;;;;;;48.28;24.83;;;;;;;-1.51;64.40;100286.94;5133527;28;20473;-77
2021/03/08 02:12:20;;;;;;;49.88;24.55;;;;;;;-1.55;64.29;100275.63;5133666;28;20049;-77
2021/03/08 02:14:49;;;;;;;49.80;25.80;;;;;;;-1.57;64.78;100269.53;5133788;28;20422;-80
2021/03/08 02:17:25;;;;;;;53.70;25.30;;;;;;;-1.62;64.49;100270.50;5133303;28;20019;-77
2021/03/08 02:20:12;;;;;;;46.38;25.15;;;;;;;-1.41;64.13;100272.00;5133903;28;20027;-80
2021/03/08 02:23:02;;;;;;;50.13;24.10;;;;;;;-1.24;63.77;100275.28;5115100;28;20058;-79
2021/03/08 02:25:51;;;;;;;56.25;24.90;;;;;;;-1.38;63.79;100258.88;5133291;28;20023;-76
2021/03/08 02:28:47;;;;;;;49.28;24.92;;;;;;;-1.45;64.15;100265.91;5133503;28;20030;-77
2021/03/08 02:31:12;;;;;;;51.20;24.50;;;;;;;-1.46;64.28;100270.28;5115248;28;20031;-78
2021/03/08 02:33:41;;;;;;;53.03;25.77;;;;;;;-1.23;63.53;100262.19;5133310;27;20470;-77
2021/03/08 02:36:09;;;;;;;53.08;25.83;;;;;;;-1.19;63.12;100250.78;5133848;28;20035;-77
2021/03/08 02:38:50;;;;;;;52.58;24.63;;;;;;;-1.33;63.47;100257.94;5135065;27;20561;-77
2021/03/08 02:41:20;;;;;;;48.85;24.50;;;;;;;-1.38;63.24;100254.50;5137046;27;20072;-79
2021/03/08 02:44:08;;;;;;;45.95;24.15;;;;;;;-1.48;63.80;100255.50;5137604;27;20410;-76
2021/03/08 02:46:36;;;;;;;48.60;23.70;;;;;;;-1.37;63.32;100255.38;5136854;27;20027;-77
2021/03/08 02:49:06;;;;;;;47.97;24.08;;;;;;;-1.43;63.45;100245.84;5118882;27;20489;-79
2021/03/08 02:51:37;;;;;;;42.90;22.70;;;;;;;-1.33;63.13;100244.88;5136690;27;20023;-79
2021/03/08 02:54:04;;;;;;;46.05;23.55;;;;;;;-1.37;63.04;100250.13;5118512;27;20031;-78
2021/03/08 02:56:33;;;;;;;48.90;25.13;;;;;;;-1.22;62.14;100242.97;5118358;27;20042;-78
2021/03/08 02:59:02;;;;;;;47.22;23.52;;;;;;;-1.38;63.25;100258.88;5136909;27;20043;-79
2021/03/08 03:01:30;;;;;;;55.08;28.17;;;;;;;-1.59;64.27;100250.38;5135900;27;20070;-76
2021/03/08 03:03:58;;;;;;;56.47;28.65;;;;;;;-1.69;64.97;100247.88;5137207;27;20377;-77
2021/03/08 03:06:29;;;;;;;51.78;26.42;;;;;;;-1.53;64.02;100259.94;5101463;27;20027;-76
2021/03/08 03:08:56;;;;;;;50.85;25.52;;;;;;;-1.44;64.24;100257.22;5136755;27;20084;-76
2021/03/08 03:11:23;;;;;;;44.97;24.17;;;;;;;-1.36;63.80;100252.72;5118110;27;20457;-79
2021/03/08 03:13:51;;;;;;;49.28;24.58;;;;;;;-1.40;63.64;100250.19;5136622;27;20107;-78
2021/03/08 03:16:18;;;;;;;51.75;24.80;;;;;;;-1.59;64.27;100249.53;5118402;27;20027;-80
2021/03/08 03:18:49;;;;;;;45.58;23.67;;;;;;;-1.62;64.17;100252.19;5136342;27;20489;-75
2021/03/08 03:21:17;;;;;;;41.40;21.92;;;;;;;-1.55;63.79;100245.97;5117973;27;20464;-77
2021/03/08 03:23:46;;;;;;;44.25;22.85;;;;;;;-1.49;63.36;100244.16;5118221;27;20027;-79
2021/03/08 03:26:13;;;;;;;49.25;24.02;;;;;;;-1.77;64.84;100254.06;5117958;27;20477;-79
2021/03/08 03:28:38;;;;;;;47.53;23.40;;;;;;;-1.86;65.33;100256.75;5117739;27;20031;-77
2021/03/08 03:31:06;;;;;;;43.10;22.80;;;;;;;-1.95;65.83;100264.69;5136234;27;20023;-76
2021/03/08 03:33:33;;;;;;;46.92;23.25;;;;;;;-1.97;65.86;100261.22;5135986;27;20023;-78
2021/03/08 03:35:59;;;;;;;48.95;23.73;;;;;;;-2.06;66.37;100259.56;5135964;27;20115;-76
2021/03/08 03:38:26;;;;;;;50.10;24.38;;;;;;;-2.07;66.03;100270.91;5135839;27;20110;-78
2021/03/08 03:40:52;;;;;;;49.28;23.75;;;;;;;-1.93;65.72;100259.44;5136269;27;20019;-80
2021/03/08 03:43:17;;;;;;;48.85;23.77;;;;;;;-1.74;65.23;100255.75;5117683;27;20027;-79
2021/03/08 03:45:43;;;;;;;55.75;27.05;;;;;;;-1.91;65.61;100258.56;5135936;27;20023;-77
2021/03/08 03:48:09;;;;;;;63.58;30.38;;;;;;;-1.98;66.13;100250.78;5117733;27;20038;-79
2021/03/08 03:50:36;;;;;;;62.20;29.20;;;;;;;-1.95;65.82;100256.84;5116077;27;20031;-79
2021/03/08 03:53:05;;;;;;;64.20;29.58;;;;;;;-2.01;66.06;100262.16;5117776;27;20164;-79
2021/03/08 03:55:30;;;;;;;69.10;31.63;;;;;;;-1.94;65.39;100260.31;5135540;27;20027;-79
2021/03/08 03:58:25;;;;;;;71.53;31.77;;;;;;;-1.79;64.91;100263.66;5117365;27;20083;-79
2021/03/08 04:01:03;;;;;;;65.93;30.80;;;;;;;-1.94;65.57;100266.41;5135675;27;20441;-79
2021/03/08 04:03:32;;;;;;;59.30;30.05;;;;;;;-2.04;66.27;100268.25;5116938;27;20027;-79
2021/03/08 04:06:00;;;;;;;63.72;30.45;;;;;;;-2.03;66.35;100276.94;5135897;27;20064;-79
2021/03/08 04:08:28;;;;;;;64.53;31.20;;;;;;;-2.10;66.75;100262.22;5135471;27;20023;-80
2021/03/08 04:10:57;;;;;;;59.58;29.45;;;;;;;-2.22;67.31;100257.06;5116972;27;20019;-78
2021/03/08 04:13:29;;;;;;;64.38;29.80;;;;;;;-2.21;67.46;100258.84;5134983;27;20028;-81
2021/03/08 04:15:56;;;;;;;65.82;33.35;;;;;;;-2.20;67.78;100266.66;5136741;27;20484;-81
2021/03/08 04:18:23;;;;;;;64.45;30.52;;;;;;;-2.22;67.73;100246.63;5118456;27;20026;-79
2021/03/08 04:20:52;;;;;;;59.65;28.52;;;;;;;-2.13;67.10;100254.38;5135420;27;20610;-76
2021/03/08 04:23:19;;;;;;;60.67;28.27;;;;;;;-1.98;66.40;100256.88;5135205;27;20042;-75
2021/03/08 04:25:46;;;;;;;49.53;26.42;;;;;;;-1.96;66.05;100251.63;5099382;27;20482;-75
2021/03/08 04:28:13;;;;;;;54.42;26.05;;;;;;;-1.88;65.76;100253.28;5116803;27;20074;-75
2021/03/08 04:30:41;;;;;;;49.00;25.23;;;;;;;-1.90;66.05;100255.06;5099448;27;20113;-76
2021/03/08 04:33:08;;;;;;;55.00;25.77;;;;;;;-1.91;66.13;100260.31;5134909;27;20015;-75
2021/03/08 04:35:34;;;;;;;48.92;25.65;;;;;;;-2.03;66.16;100263.88;5134561;27;20023;-75
2021/03/08 04:38:00;;;;;;;51.80;26.75;;;;;;;-2.18;66.68;100251.84;5135056;27;20023;-77
2021/03/08 04:40:26;;;;;;;49.55;24.73;;;;;;;-2.18;67.18;100261.41;5134572;27;20031;-77
2021/03/08 04:42:53;;;;;;;47.30;25.20;;;;;;;-2.18;67.10;100269.25;5134796;27;20027;-77
2021/03/08 04:45:20;;;;;;;50.45;25.60;;;;;;;-2.21;67.28;100269.28;5134558;27;20094;-77
2021/03/08 04:47:47;;;;;;;53.22;26.45;;;;;;;-2.28;67.62;100259.75;5116189;27;20031;-80
2021/03/08 04:50:15;;;;;;;55.80;27.25;;;;;;;-2.27;67.65;100264.09;5134722;27;20023;-80
2021/03/08 04:52:46;;;;;;;56.35;27.92;;;;;;;-2.27;67.90;100254.53;5134523;27;20031;-78
2021/03/08 04:55:13;;;;;;;56.45;27.10;;;;;;;-2.37;68.36;100242.41;5134423;27;20053;-81
2021/03/08 04:57:39;;;;;;;56.30;26.45;;;;;;;-2.19;67.72;100257.94;5116266;27;20035;-80
2021/03/08 05:00:07;;;;;;;56.50;26.92;;;;;;;-2.19;67.94;100262.31;5116001;27;20046;-79
2021/03/08 05:02:39;;;;;;;56.28;27.13;;;;;;;-2.10;67.69;100257.00;5133981;27;20034;-79
2021/03/08 05:05:07;;;;;;;57.25;26.45;;;;;;;-2.10;67.46;100263.09;5116225;27;20029;-78
2021/03/08 05:07:35;;;;;;;54.83;26.23;;;;;;;-2.23;67.64;100256.22;5116088;27;20031;-80
2021/03/08 05:10:02;;;;;;;57.28;27.73;;;;;;;-2.30;68.04;100249.31;5134524;27;20080;-79
2021/03/08 05:12:29;;;;;;;51.15;26.55;;;;;;;-2.27;68.30;100256.25;5134102;27;20031;-80
2021/03/08 05:14:57;;;;;;;60.28;26.25;;;;;;;-2.24;68.16;100244.03;5115859;27;20027;-82
2021/03/08 05:17:23;;;;;;;63.60;28.50;;;;;;;-2.09;67.13;100258.72;5134446;27;20144;-79
2021/03/08 05:19:50;;;;;;;62.47;28.33;;;;;;;-1.98;66.67;100256.88;5134210;27;20493;-78
2021/03/08 05:22:17;;;;;;;54.28;27.08;;;;;;;-2.07;66.51;100236.06;5115653;27;20085;-78
2021/03/08 05:24:52;;;;;;;57.05;28.00;;;;;;;-2.06;66.49;100240.41;5081671;27;20431;-78
2021/03/08 05:27:19;;;;;;;57.03;27.88;;;;;;;-2.04;66.73;100256.91;5098833;27;20370;-79
2021/03/08 05:29:46;;;;;;;62.95;29.05;;;;;;;-2.16;67.70;100244.84;5115664;27;20027;-80
2021/03/08 05:32:18;;;;;;;66.45;29.83;;;;;;;-2.17;68.16;100250.94;5133917;27;20077;-82
2021/03/08 05:34:46;;;;;;;60.85;30.35;;;;;;;-2.18;68.07;100264.91;5115243;28;20027;-82
2021/03/08 05:37:13;;;;;;;65.00;30.88;;;;;;;-2.20;68.17;100265.78;5134014;27;20097;-79
2021/03/08 05:39:41;;;;;;;62.28;30.20;;;;;;;-2.17;68.52;100258.78;5133673;28;20031;-74
2021/03/08 05:42:11;;;;;;;65.15;30.10;;;;;;;-2.17;68.71;100255.31;5133964;27;20023;-76
2021/03/08 05:44:55;;;;;;;65.00;30.48;;;;;;;-2.17;69.14;100261.41;5133676;27;20380;-77
2021/03/08 05:47:42;;;;;;;60.10;29.63;;;;;;;-1.83;67.81;100261.97;5133890;27;20039;-77
2021/03/08 05:50:28;;;;;;;63.00;29.30;;;;;;;-1.73;67.40;100260.13;5133993;28;20027;-76
2021/03/08 05:53:31;;;;;;;59.20;27.73;;;;;;;-1.87;67.71;100259.38;5091669;28;20031;-77
2021/03/08 05:56:08;;;;;;;62.67;29.92;;;;;;;-1.84;67.92;100265.44;5133708;27;20031;-76
2021/03/08 05:58:52;;;;;;;70.13;29.10;;;;;;;-1.83;67.69;100264.59;5114753;28;20034;-72
2021/03/08 06:01:36;;;;;;;55.88;27.83;;;;;;;-1.77;68.15;100261.91;5133246;27;20050;-73
2021/03/08 06:04:20;;;;;;;61.10;27.92;;;;;;;-1.70;67.82;100277.53;5133400;28;20023;-73
2021/03/08 06:07:22;;;;;;;60.08;28.63;;;;;;;-1.62;67.85;100275.72;5114624;28;20019;-73
2021/03/08 06:10:09;;;;;;;60.90;30.35;;;;;;;-1.49;67.10;100277.31;5133041;28;20024;-74
2021/03/08 06:12:36;;;;;;;58.33;28.55;;;;;;;-1.39;66.62;100275.47;5133596;27;20030;-74
2021/03/08 06:15:10;;;;;;;65.20;31.85;;;;;;;-1.41;66.89;100270.25;5137357;27;20027;-74
2021/03/08 06:17:39;;;;;;;62.20;29.42;;;;;;;-1.32;66.69;100271.91;5136973;27;20486;-73
2021/03/08 06:20:09;;;;;;;53.50;27.45;;;;;;;-1.20;66.13;100285.69;5119118;27;20060;-74
2021/03/08 06:22:35;;;;;;;53.97;29.13;;;;;;;-1.18;66.16;100280.44;5118416;27;20544;-70
2021/03/08 06:25:03;;;;;;;59.35;29.38;;;;;;;-1.10;66.07;100289.06;5101761;27;20359;-70
2021/03/08 06:27:30;;;;;;;59.30;29.27;;;;;;;-0.96;65.73;100289.78;5137171;27;20038;-70
2021/03/08 06:29:56;;;;;;;57.30;28.20;;;;;;;-0.83;65.80;100289.63;5137095;27;20114;-76
2021/03/08 06:32:23;;;;;;;53.58;28.13;;;;;;;-0.67;65.71;100297.25;5114969;27;20100;-74
2021/03/08 06:34:49;;;;;;;54.05;28.20;;;;;;;-0.58;65.45;100293.63;5136838;27;20095;-73
2021/03/08 06:37:15;;;;;;;61.50;28.90;;;;;;;-0.53;65.41;100298.81;5136714;27;20035;-75
2021/03/08 06:39:45;;;;;;;53.80;27.73;;;;;;;-0.37;65.09;100305.56;5117944;27;20031;-74
2021/03/08 06:42:14;;;;;;;55.85;27.75;;;;;;;-0.23;64.39;100303.59;5136539;27;20480;-74
2021/03/08 06:44:39;;;;;;;54.83;27.15;;;;;;;-0.09;64.18;100306.00;5136401;27;20496;-78
2021/03/08 06:47:06;;;;;;;59.50;28.60;;;;;;;0.04;63.77;100317.16;5101193;27;20031;-75
2021/03/08 06:49:33;;;;;;;54.40;28.52;;;;;;;0.12;63.43;100308.28;5118120;27;20034;-74
2021/03/08 06:52:08;;;;;;;58.17;29.17;;;;;;;0.19;63.43;100309.91;5136268;27;20129;-73
2021/03/08 06:54:44;;;;;;;58.10;29.58;;;;;;;0.38;63.14;100323.56;5136309;27;20023;-75
2021/03/08 06:57:22;;;;;;;57.30;26.70;;;;;;;0.40;63.13;100328.81;5136355;27;20030;-74
2021/03/08 06:59:57;;;;;;;50.17;26.23;;;;;;;0.44;63.12;100315.59;5133303;27;20477;-75
2021/03/08 07:02:33;;;;;;;55.08;27.30;;;;;;;0.54;62.75;100330.28;5131903;27;20058;-73
2021/03/08 07:04:59;;;;;;;52.30;26.50;;;;;;;0.68;62.86;100322.16;5136677;27;20038;-76
2021/03/08 07:07:25;;;;;;;57.92;27.15;;;;;;;0.93;62.42;100327.78;5136515;27;20031;-75
2021/03/08 07:09:52;;;;;;;51.63;26.67;;;;;;;1.01;61.73;100327.63;5136092;27;20046;-74
2021/03/08 07:12:18;;;;;;;49.50;26.17;;;;;;;0.96;61.65;100329.47;5136978;27;20110;-74
2021/03/08 07:14:45;;;;;;;59.08;26.73;;;;;;;0.96;62.06;100327.72;5108026;27;20042;-74
2021/03/08 07:17:36;;;;;;;54.60;26.13;;;;;;;0.99;61.90;100332.94;5143534;27;20386;-73
2021/03/08 07:20:06;;;;;;;51.25;24.42;;;;;;;1.05;61.60;100330.16;5135973;27;20055;-71
2021/03/08 07:22:42;;;;;;;48.80;25.13;;;;;;;1.32;59.75;100325.25;5121471;27;20031;-74
2021/03/08 07:25:31;;;;;;;52.63;24.70;;;;;;;1.14;60.63;100319.47;5136023;27;20027;-71
2021/03/08 07:28:06;;;;;;;44.80;22.92;;;;;;;1.18;60.64;100333.44;5137467;27;20031;-71
2021/03/08 07:30:35;;;;;;;48.63;24.85;;;;;;;1.19;61.01;100318.53;5133209;27;20027;-73
2021/03/08 07:33:05;;;;;;;44.70;23.65;;;;;;;1.38;60.64;100336.50;5116381;28;20073;-68
2021/03/08 07:35:48;;;;;;;46.70;22.70;;;;;;;1.54;59.90;100329.13;5118236;28;20054;-78
2021/03/08 07:38:16;;;;;;;45.78;22.98;;;;;;;1.61;60.19;100333.34;5123101;28;20037;-75
2021/03/08 07:40:45;;;;;;;45.50;24.55;;;;;;;1.69;59.96;100335.81;5132560;28;20075;-77
2021/03/08 07:43:24;;;;;;;42.95;23.23;;;;;;;1.66;59.65;100321.00;5103781;28;20075;-74
2021/03/08 07:45:51;;;;;;;45.13;21.08;;;;;;;1.75;57.88;100321.69;5115342;28;20474;-73
2021/03/08 07:48:19;;;;;;;38.92;20.73;;;;;;;1.91;57.94;100320.41;5080082;28;20055;-71
2021/03/08 07:50:46;;;;;;;38.13;20.17;;;;;;;2.21;56.02;100314.38;5115047;28;20031;-75
2021/03/08 07:53:36;;;;;;;35.33;19.80;;;;;;;2.26;55.88;100323.03;5115034;28;20031;-77
2021/03/08 07:56:06;;;;;;;36.92;19.35;;;;;;;2.14;55.80;100306.72;5115190;28;20106;-76
2021/03/08 07:58:33;;;;;;;39.10;20.25;;;;;;;2.13;56.14;100312.88;5079577;28;20032;-74
2021/03/08 08:01:01;;;;;;;41.03;19.55;;;;;;;2.39;55.59;100328.00;5120740;27;20177;-74
2021/03/08 08:03:27;;;;;;;32.08;18.05;;;;;;;2.91;53.67;100330.13;5130942;27;20060;-74
2021/03/08 08:05:56;;;;;;;37.50;19.00;;;;;;;3.05;53.33;100325.31;5134197;27;20031;-75
2021/03/08 08:08:23;;;;;;;33.88;18.45;;;;;;;3.05;52.89;100317.41;5137193;27;20019;-78
2021/03/08 08:10:53;;;;;;;35.92;18.30;;;;;;;3.14;52.52;100318.94;5135314;27;20530;-80
2021/03/08 08:13:22;;;;;;;33.85;17.42;;;;;;;3.19;52.75;100319.69;5134392;27;20153;-75
2021/03/08 08:15:50;;;;;;;34.00;16.65;;;;;;;3.09;52.39;100305.91;5134901;27;20072;-76
2021/03/08 08:18:19;;;;;;;35.20;15.90;;;;;;;3.15;52.43;100324.16;5135084;27;20023;-76
2021/03/08 08:20:48;;;;;;;27.15;13.15;;;;;;;3.51;50.99;100328.41;5134922;27;20023;-74
2021/03/08 08:23:15;;;;;;;24.08;11.00;;;;;;;3.69;48.28;100327.84;5134929;27;20034;-75
2021/03/08 08:25:43;;;;;;;22.35;11.63;;;;;;;3.89;48.27;100314.88;5135178;27;20051;-76
2021/03/08 08:28:09;;;;;;;20.80;11.05;;;;;;;4.11;46.93;100330.03;5134972;27;20084;-79
2021/03/08 08:30:35;;;;;;;16.05;9.35;;;;;;;4.09;45.78;100329.22;5129010;27;20027;-77
2021/03/08 08:33:00;;;;;;;15.05;9.25;;;;;;;3.98;46.04;100327.78;5096222;28;20084;-76
2021/03/08 08:35:31;;;;;;;25.15;10.52;;;;;;;4.02;46.44;100321.50;5095318;28;20139;-75
2021/03/08 08:38:11;;;;;;;18.85;10.55;;;;;;;4.15;45.99;100332.53;5114077;28;20033;-74
2021/03/08 08:40:39;;;;;;;20.25;10.52;;;;;;;4.18;46.02;100331.56;5113855;28;20028;-74
2021/03/08 08:43:13;;;;;;;19.30;10.95;;;;;;;4.32;45.85;100329.31;5095847;28;20031;-77
2021/03/08 08:45:40;;;;;;;20.75;10.82;;;;;;;4.39;46.25;100327.34;5095626;28;20023;-76
2021/03/08 08:48:06;;;;;;;16.05;8.82;;;;;;;4.59;45.12;100324.88;5095446;28;20027;-75
2021/03/08 08:50:44;;;;;;;15.52;8.20;;;;;;;4.66;44.83;100328.19;5106297;27;20205;-73
2021/03/08 08:53:10;;;;;;;19.15;9.48;;;;;;;4.69;44.97;100317.50;5134287;27;20023;-72
2021/03/08 08:55:36;;;;;;;14.35;7.95;;;;;;;4.66;44.82;100318.47;5115650;27;20051;-74
2021/03/08 08:58:23;;;;;;;16.23;9.23;;;;;;;4.86;44.92;100316.00;5134307;27;20051;-76
2021/03/08 09:01:43;;;;;;;15.60;8.95;;;;;;;5.02;44.66;100299.56;5127809;27;20032;-78
2021/03/08 09:04:15;;;;;;;15.23;8.55;;;;;;;5.02;44.58;100305.75;5081641;28;20042;-77
2021/03/08 09:06:51;;;;;;;16.65;9.57;;;;;;;5.05;44.78;100313.56;5113752;28;20023;-77
2021/03/08 09:09:36;;;;;;;11.18;6.18;;;;;;;5.29;44.03;100297.69;5095169;28;20041;-74
2021/03/08 09:12:06;;;;;;;15.65;9.00;;;;;;;5.33;44.37;100283.44;5098856;28;20101;-75
2021/03/08 09:14:34;;;;;;;14.13;6.72;;;;;;;5.49;43.81;100295.13;5078614;28;20366;-74
2021/03/08 09:17:22;;;;;;;12.40;6.13;;;;;;;5.42;43.23;100289.25;5113478;28;20031;-75
2021/03/08 09:19:56;;;;;;;17.23;8.77;;;;;;;5.43;42.68;100290.09;5113092;28;20104;-78
2021/03/08 09:22:22;;;;;;;16.00;8.48;;;;;;;5.52;43.15;100297.69;5113298;28;20434;-73
2021/03/08 09:25:10;;;;;;;17.35;9.20;;;;;;;5.37;42.96;100285.91;5113795;28;20104;-78
2021/03/08 09:27:38;;;;;;;13.93;7.80;;;;;;;5.53;43.13;100274.72;5113290;28;20024;-76
2021/03/08 09:30:07;;;;;;;16.25;8.50;;;;;;;5.59;43.23;100288.56;5094845;28;20019;-80
2021/03/08 09:32:34;;;;;;;16.08;8.68;;;;;;;5.64;43.37;100277.81;5113375;28;20024;-77
2021/03/08 09:35:07;;;;;;;13.60;7.68;;;;;;;5.79;43.12;100286.91;5078193;28;20038;-77
2021/03/08 09:37:34;;;;;;;13.35;6.97;;;;;;;5.76;43.28;100303.78;5113471;28;20035;-79
2021/03/08 09:40:00;;;;;;;14.30;8.43;;;;;;;5.75;43.95;100312.66;5094947;28;20055;-76
2021/03/08 09:42:39;;;;;;;12.35;6.68;;;;;;;5.60;44.37;100292.97;5113451;28;20024;-78
2021/03/08 09:45:18;;;;;;;16.95;8.70;;;;;;;5.54;45.03;100303.78;5113095;28;20063;-76
2021/03/08 09:47:44;;;;;;;18.60;9.93;;;;;;;5.59;45.21;100306.22;5097265;28;20500;-76
2021/03/08 09:50:10;;;;;;;16.02;8.60;;;;;;;5.82;45.05;100300.06;5117220;28;20031;-74
2021/03/08 09:52:41;;;;;;;25.13;12.57;;;;;;;5.84;45.18;100309.66;5099257;28;20027;-75
2021/03/08 09:55:14;;;;;;;22.23;11.77;;;;;;;5.74;45.04;100300.34;5116047;28;20720;-76
2021/03/08 09:57:41;;;;;;;15.05;8.38;;;;;;;5.74;45.26;100282.69;5115439;28;20477;-80
2021/03/08 10:00:16;;;;;;;19.02;8.43;;;;;;;5.93;45.01;100300.50;5115745;28;20039;-80
2021/03/08 10:02:42;;;;;;;12.02;6.95;;;;;;;5.92;44.90;100304.09;5116455;28;20043;-74
2021/03/08 10:05:11;;;;;;;17.55;9.88;;;;;;;5.91;44.51;100307.66;5117092;28;20020;-76
2021/03/08 10:07:54;;;;;;;14.05;8.27;;;;;;;6.01;44.23;100303.72;5116066;28;20030;-74
2021/03/08 10:10:21;;;;;;;20.93;10.00;;;;;;;5.79;44.29;100313.38;5098808;28;20051;-73
2021/03/08 10:12:57;;;;;;;18.40;8.55;;;;;;;5.87;44.42;100292.78;5116765;28;20461;-73
2021/03/08 10:15:22;;;;;;;15.32;8.27;;;;;;;5.77;44.18;100305.50;5093927;28;20107;-74
2021/03/08 10:18:00;;;;;;;21.67;11.38;;;;;;;5.82;44.76;100297.41;5114978;28;20058;-71
2021/03/08 10:20:27;;;;;;;18.02;10.52;;;;;;;5.99;44.47;100298.50;5133541;27;20430;-71
2021/03/08 10:22:54;;;;;;;13.43;8.57;;;;;;;6.12;44.00;100297.97;5136686;27;20027;-72
2021/03/08 10:25:24;;;;;;;17.80;6.50;;;;;;;6.15;43.94;100298.69;5137561;27;20039;-71
2021/03/08 10:28:00;;;;;;;21.38;11.63;;;;;;;6.02;44.06;100308.09;5136572;27;20026;-73
2021/03/08 10:30:31;;;;;;;18.65;11.07;;;;;;;5.98;44.43;100283.53;5132358;27;20436;-72
2021/03/08 10:33:02;;;;;;;12.30;6.53;;;;;;;6.14;44.02;100298.78;5116512;28;20023;-72
2021/03/08 10:35:31;;;;;;;18.15;8.77;;;;;;;6.27;44.09;100287.63;5116274;28;20028;-72
2021/03/08 10:37:59;;;;;;;21.17;11.88;;;;;;;6.26;44.03;100299.13;5116281;28;20115;-71
2021/03/08 10:40:25;;;;;;;20.55;11.40;;;;;;;6.12;43.87;100292.69;5116119;28;20031;-70
2021/03/08 10:42:52;;;;;;;22.15;11.52;;;;;;;6.13;44.17;100305.84;5116265;28;20371;-73
2021/03/08 10:45:18;;;;;;;15.60;9.18;;;;;;;6.01;43.84;100303.72;5098207;28;20020;-74
2021/03/08 10:47:44;;;;;;;17.00;9.93;;;;;;;6.10;43.30;100295.41;5116243;28;20489;-73
2021/03/08 10:50:09;;;;;;;17.10;10.68;;;;;;;6.23;43.95;100293.94;5097764;28;20039;-72
2021/03/08 10:52:35;;;;;;;22.95;11.20;;;;;;;6.27;43.40;100284.97;5116039;28;20041;-73
2021/03/08 10:55:01;;;;;;;18.35;10.98;;;;;;;6.41;43.48;100275.56;5097874;28;20028;-75
2021/03/08 10:57:27;;;;;;;21.17;11.13;;;;;;;6.35;43.35;100278.47;5116127;28;20047;-75
2021/03/08 10:59:57;;;;;;;20.13;12.40;;;;;;;6.32;43.88;100293.56;5114773;28;20120;-78
2021/03/08 11:02:23;;;;;;;21.05;12.18;;;;;;;6.26;44.05;100291.16;5115721;28;20027;-71
2021/03/08 11:04:52;;;;;;;20.92;11.98;;;;;;;6.34;43.97;100279.41;5098158;28;20030;-79
2021/03/08 11:07:37;;;;;;;19.95;12.13;;;;;;;6.24;43.85;100277.13;5116282;28;20050;-79
2021/03/08 11:10:05;;;;;;;19.58;10.20;;;;;;;6.27;44.08;100263.78;5097090;28;20454;-78
2021/03/08 11:12:30;;;;;;;19.83;10.68;;;;;;;6.30;43.74;100292.78;5115835;28;20019;-78
2021/03/08 11:14:58;;;;;;;19.65;11.75;;;;;;;6.13;43.36;100234.34;5097665;28;20024;-73
2021/03/08 11:17:32;;;;;;;18.80;10.63;;;;;;;6.49;43.42;100270.81;5115768;28;20015;-73
2021/03/08 11:20:09;;;;;;;23.75;11.30;;;;;;;6.37;43.94;100279.25;5126862;27;20376;-72
2021/03/08 11:22:56;;;;;;;21.25;11.45;;;;;;;6.30;44.25;100274.25;5135429;27;20052;-77
2021/03/08 11:25:43;;;;;;;23.10;12.80;;;;;;;6.40;44.71;100263.25;5135986;27;20065;-77
2021/03/08 11:28:15;;;;;;;20.65;10.57;;;;;;;6.41;45.01;100264.97;5117763;27;20060;-79